Time;durP1;ratioP1;P1;durP2;ratioP2;P2;SDS_P1;SDS_P2;PMS_P1;PMS_P2;Temp;Humidity;BMP_temperature;BMP_pressure;BME280_temperature;BME280_humidity;BME280_pressure;Samples;Min_cycle;Max_cycle;Signal;HPM_P1;HPM_P2
2021/12/11 00:01:37;;;;;;;40.28;28.80;;;6.70;99.90;;;7.20;89.30;100446.38;5116357;28;20047;-69
2021/12/11 00:04:12;;;;;;;44.33;28.77;;;6.90;99.90;;;7.35;89.04;100442.03;5115927;28;20056;-71
2021/12/11 00:06:44;;;;;;;43.53;29.73;;;7.20;99.90;;;7.46;88.44;100450.81;5115948;28;20043;-69
2021/12/11 00:09:19;;;;;;;46.97;31.67;;;7.30;99.90;;;7.32;88.46;100445.53;5115636;28;20047;-70
2021/12/11 00:11:53;;;;;;;44.17;31.38;;;7.20;99.90;;;7.02;88.91;100456.00;5115521;28;20089;-70
2021/12/11 00:14:23;;;;;;;48.10;33.45;;;6.90;99.90;;;7.30;89.35;100468.31;5115787;28;20039;-70
2021/12/11 00:16:52;;;;;;;46.33;31.77;;;7.10;99.90;;;7.45;88.96;100468.38;5115717;28;20082;-70
2021/12/11 00:19:25;;;;;;;48.28;32.97;;;7.30;99.90;;;7.47;88.49;100469.22;5115324;28;20511;-70
2021/12/11 00:21:54;;;;;;;46.58;32.20;;;7.40;99.90;;;7.40;88.24;100464.84;5115715;28;20048;-70
2021/12/11 00:24:29;;;;;;;48.05;32.10;;;7.40;99.90;;;7.52;88.08;100485.03;5097226;28;20069;-69
2021/12/11 00:27:04;;;;;;;47.13;32.33;;;7.40;99.90;;;7.67;87.86;100493.81;5115264;28;20043;-70
2021/12/11 00:29:34;;;;;;;44.45;31.63;;;7.50;99.90;;;7.77;87.77;100498.22;5097172;28;20532;-69
2021/12/11 00:32:07;;;;;;;45.97;32.30;;;7.60;99.90;;;7.79;87.55;100504.38;5097075;28;20044;-70
2021/12/11 00:34:40;;;;;;;45.63;31.42;;;7.70;99.90;;;7.86;87.21;100511.38;5115078;28;20070;-70
2021/12/11 00:37:11;;;;;;;45.58;32.58;;;7.70;99.90;;;7.91;86.89;100516.66;5115277;28;20044;-70
2021/12/11 00:39:49;;;;;;;48.17;31.48;;;7.80;99.90;;;7.84;86.69;100515.78;5096789;28;20484;-70
2021/12/11 00:42:24;;;;;;;45.15;30.90;;;7.80;99.90;;;8.01;86.81;100524.56;5114519;28;20044;-69
2021/12/11 00:44:56;;;;;;;48.55;33.10;;;7.90;99.90;;;8.01;86.42;100529.81;5115002;28;20039;-69
2021/12/11 00:47:29;;;;;;;50.90;34.40;;;7.90;99.90;;;8.03;86.19;100541.22;5115162;28;20044;-70
2021/12/11 00:50:01;;;;;;;47.25;33.50;;;7.90;99.90;;;8.05;85.89;100542.13;5096629;28;20134;-70
2021/12/11 00:52:34;;;;;;;48.20;32.47;;;7.90;99.90;;;8.05;85.75;100557.91;5114537;28;20039;-70
2021/12/11 00:55:08;;;;;;;49.38;33.58;;;8.00;99.90;;;8.09;85.73;100559.69;5114766;28;20100;-69
2021/12/11 00:57:38;;;;;;;49.70;34.05;;;8.00;99.90;;;8.17;85.60;100557.94;5114602;28;20462;-69
2021/12/11 01:00:14;;;;;;;47.55;32.47;;;8.00;99.90;;;8.15;85.20;100564.94;5114578;28;20051;-69
2021/12/11 01:02:45;;;;;;;46.85;32.67;;;8.00;99.90;;;8.00;85.33;100548.25;5114584;28;20454;-69
2021/12/11 01:05:14;;;;;;;47.45;32.45;;;8.00;99.90;;;8.08;84.79;100578.13;5114232;28;20044;-69
2021/12/11 01:07:42;;;;;;;46.45;32.33;;;8.00;99.90;;;8.07;84.89;100602.72;5114215;28;20500;-69
2021/12/11 01:10:15;;;;;;;44.50;32.85;;;8.00;99.90;;;8.17;84.54;100604.47;5114128;28;20051;-70
2021/12/11 01:12:54;;;;;;;45.60;31.50;;;8.00;99.90;;;8.20;84.46;100604.47;5114382;28;20451;-69
2021/12/11 01:15:28;;;;;;;47.25;32.55;;;8.00;99.90;;;8.03;84.17;100593.06;5096031;28;20051;-69
2021/12/11 01:18:04;;;;;;;43.85;30.48;;;7.80;99.90;;;7.92;84.80;100598.28;5113998;28;20044;-70
2021/12/11 01:20:48;;;;;;;45.90;32.58;;;7.70;99.90;;;8.00;84.78;100599.19;5114285;28;20043;-69
2021/12/11 01:23:34;;;;;;;45.88;31.55;;;7.70;99.90;;;7.86;84.75;100585.09;5113932;28;20558;-69
2021/12/11 01:26:05;;;;;;;45.97;32.38;;;7.80;99.90;;;8.08;84.71;100609.72;5113861;28;20039;-70
2021/12/11 01:28:36;;;;;;;50.60;33.33;;;7.80;99.90;;;8.07;84.78;100610.63;5113854;28;20409;-69
2021/12/11 01:31:10;;;;;;;44.47;32.10;;;7.80;99.90;;;8.04;85.09;100621.13;5114128;28;20126;-70
2021/12/11 01:33:39;;;;;;;47.88;32.95;;;7.80;99.90;;;7.72;84.93;100575.44;5113748;28;20044;-69
2021/12/11 01:36:09;;;;;;;50.75;34.10;;;7.80;99.90;;;7.91;84.93;100625.50;5114195;28;20473;-70
2021/12/11 01:38:38;;;;;;;47.40;32.97;;;7.80;99.90;;;7.94;84.94;100625.50;5095548;28;20569;-69
2021/12/11 01:41:13;;;;;;;48.83;33.40;;;7.80;99.90;;;7.91;84.79;100637.78;5113613;28;20046;-69
2021/12/11 01:43:44;;;;;;;47.58;32.88;;;7.80;99.90;;;7.96;84.88;100638.66;5113555;28;20079;-69
2021/12/11 01:46:14;;;;;;;44.72;31.77;;;7.80;99.90;;;7.99;84.83;100647.44;5114017;28;20048;-70
2021/12/11 01:48:47;;;;;;;47.00;31.88;;;7.80;99.90;;;7.68;84.83;100607.88;5114082;28;20130;-70
2021/12/11 01:51:24;;;;;;;41.72;31.02;;;7.80;99.90;;;8.01;84.73;100672.03;5113568;28;20442;-70
2021/12/11 01:53:57;;;;;;;43.20;31.15;;;7.90;99.90;;;8.04;84.73;100672.06;5112860;28;20077;-69
2021/12/11 01:56:31;;;;;;;43.80;31.33;;;7.90;99.90;;;8.10;84.74;100677.34;5113425;28;20035;-70
2021/12/11 01:59:06;;;;;;;46.40;30.90;;;7.90;99.90;;;7.97;84.02;100661.50;5113308;28;20035;-69
2021/12/11 02:01:42;;;;;;;45.70;32.05;;;7.90;99.90;;;8.12;84.11;100685.25;5113412;28;20043;-70
2021/12/11 02:04:14;;;;;;;44.17;30.85;;;8.00;99.90;;;8.13;83.86;100687.88;5113339;28;20373;-70
2021/12/11 02:06:46;;;;;;;42.33;29.63;;;7.90;99.90;;;8.09;84.39;100696.63;5113855;28;20431;-70
2021/12/11 02:09:20;;;;;;;43.95;30.40;;;7.90;99.90;;;8.05;84.26;100694.88;5113279;28;20090;-69
2021/12/11 02:11:51;;;;;;;44.30;29.52;;;7.90;99.90;;;8.10;84.15;100708.06;5113278;28;20044;-70
2021/12/11 02:14:27;;;;;;;44.75;29.60;;;7.90;99.90;;;8.05;84.12;100710.69;5113202;28;20035;-69
2021/12/11 02:16:58;;;;;;;38.42;28.83;;;7.90;99.90;;;8.09;84.25;100712.44;5113503;28;20124;-69
2021/12/11 02:19:32;;;;;;;46.85;30.95;;;7.90;99.90;;;8.13;83.96;100718.59;5113111;28;20123;-69
2021/12/11 02:22:12;;;;;;;42.63;28.88;;;7.90;99.90;;;8.13;84.24;100721.22;5113228;28;20039;-69
2021/12/11 02:24:47;;;;;;;40.95;29.17;;;7.90;99.90;;;8.13;84.31;100729.13;5113180;28;20036;-69
2021/12/11 02:27:23;;;;;;;41.33;27.80;;;7.90;99.90;;;8.09;83.91;100733.53;5113169;28;20507;-70
2021/12/11 02:29:57;;;;;;;40.50;28.30;;;7.90;99.90;;;8.10;83.97;100739.69;5113655;28;20073;-69
2021/12/11 02:32:34;;;;;;;40.22;28.55;;;7.90;99.90;;;8.10;84.07;100745.81;5113132;28;20056;-69
2021/12/11 02:35:11;;;;;;;39.42;28.77;;;7.90;99.90;;;8.07;84.15;100744.94;5113094;28;20070;-69
2021/12/11 02:37:49;;;;;;;35.80;26.20;;;7.90;99.90;;;8.05;84.14;100747.53;5113062;28;20048;-69
2021/12/11 02:40:26;;;;;;;41.17;28.42;;;7.90;99.90;;;8.04;84.24;100750.19;5113004;28;20488;-69
2021/12/11 02:43:00;;;;;;;35.80;26.33;;;7.90;99.90;;;8.04;84.19;100756.34;5113201;28;20447;-69
2021/12/11 02:45:35;;;;;;;40.08;25.42;;;7.90;99.90;;;8.04;84.59;100752.81;5112998;28;20111;-70
2021/12/11 02:48:11;;;;;;;33.20;25.10;;;7.80;99.90;;;8.05;84.24;100757.22;5113479;28;20035;-69
2021/12/11 02:50:46;;;;;;;37.33;26.05;;;7.90;99.90;;;7.91;84.53;100736.09;5112943;28;20071;-69
2021/12/11 02:53:23;;;;;;;34.47;26.08;;;7.80;99.90;;;8.04;84.45;100763.34;5112719;28;20450;-69
2021/12/11 02:55:59;;;;;;;35.30;25.13;;;7.90;99.90;;;8.03;83.95;100754.56;5113065;28;20051;-69
2021/12/11 02:58:32;;;;;;;34.15;25.35;;;7.90;99.90;;;8.01;84.53;100756.31;5113063;28;20093;-70
2021/12/11 03:01:05;;;;;;;32.55;24.90;;;7.80;99.90;;;7.78;84.41;100721.09;5113084;28;20054;-69
2021/12/11 03:03:41;;;;;;;32.65;24.67;;;7.80;99.90;;;7.99;84.69;100765.94;5112885;28;20044;-70
2021/12/11 03:06:17;;;;;;;32.60;24.38;;;7.80;99.90;;;7.98;84.12;100777.38;5116944;28;20111;-69
2021/12/11 03:08:49;;;;;;;32.80;24.75;;;7.80;99.90;;;7.99;84.40;100773.84;5116588;28;20053;-69
2021/12/11 03:11:22;;;;;;;31.33;24.60;;;7.80;99.90;;;7.99;84.34;100773.84;5116512;28;20055;-69
2021/12/11 03:13:55;;;;;;;31.48;23.95;;;7.80;99.90;;;7.71;83.80;100736.88;5116711;28;20040;-69
2021/12/11 03:16:28;;;;;;;34.83;24.42;;;7.80;99.90;;;7.95;84.33;100782.66;5116683;28;20044;-69
2021/12/11 03:18:59;;;;;;;32.92;23.38;;;7.80;99.90;;;7.93;84.54;100773.84;5116300;28;20096;-69
2021/12/11 03:21:28;;;;;;;33.03;24.25;;;7.70;99.90;;;7.90;84.40;100778.19;5116570;28;20040;-69
2021/12/11 03:23:58;;;;;;;32.83;23.75;;;7.70;99.90;;;7.76;84.36;100758.84;5116227;28;20118;-69
2021/12/11 03:26:28;;;;;;;31.85;23.25;;;7.70;99.90;;;7.87;84.35;100776.47;5116268;28;20484;-69
2021/12/11 03:28:56;;;;;;;37.28;23.83;;;7.70;99.90;;;7.84;84.39;100784.31;5116145;28;20069;-70
2021/12/11 03:31:26;;;;;;;32.13;22.77;;;7.60;99.90;;;7.62;84.17;100735.09;5116052;28;20039;-69
2021/12/11 03:33:58;;;;;;;31.02;23.55;;;7.70;99.90;;;7.85;84.01;100775.56;5116097;28;20119;-69
2021/12/11 03:36:30;;;;;;;32.22;23.58;;;7.60;99.90;;;7.85;84.32;100785.22;5116031;28;20044;-69
2021/12/11 03:39:07;;;;;;;31.98;22.67;;;7.70;99.90;;;7.85;84.51;100812.44;5115917;28;20047;-69
2021/12/11 03:41:37;;;;;;;30.38;23.25;;;7.70;99.90;;;7.85;84.29;100793.13;5116201;28;20078;-69
2021/12/11 03:44:06;;;;;;;29.05;21.13;;;7.60;99.90;;;7.86;84.11;100795.75;5116111;28;20126;-70
2021/12/11 03:46:36;;;;;;;28.10;20.88;;;7.60;99.90;;;7.86;83.67;100798.38;5116368;28;20040;-69
2021/12/11 03:49:10;;;;;;;28.92;22.25;;;7.60;99.90;;;7.82;84.25;100807.13;5097780;28;20075;-69
2021/12/11 03:51:43;;;;;;;28.50;21.67;;;7.60;99.90;;;7.84;83.66;100799.25;5116021;28;20462;-69
2021/12/11 03:54:18;;;;;;;31.88;21.35;;;7.60;99.90;;;7.84;84.05;100800.13;5115734;28;20439;-70
2021/12/11 03:56:46;;;;;;;31.52;22.58;;;7.60;99.90;;;7.85;83.93;100804.53;5115652;28;20047;-69
2021/12/11 03:59:18;;;;;;;31.73;22.23;;;7.60;99.90;;;7.81;84.26;100805.38;5115503;28;20440;-69
2021/12/11 04:01:50;;;;;;;30.90;22.50;;;7.60;99.90;;;7.80;84.40;100803.59;5115835;28;20040;-69
2021/12/11 04:04:24;;;;;;;31.38;22.90;;;7.60;99.90;;;7.83;84.28;100808.03;5115511;28;20040;-70
2021/12/11 04:06:56;;;;;;;32.58;22.02;;;7.60;99.90;;;7.78;84.15;100807.97;5115423;28;20043;-69
2021/12/11 04:09:28;;;;;;;30.02;21.85;;;7.60;99.90;;;7.80;84.23;100811.50;5115498;28;20067;-69
2021/12/11 04:11:57;;;;;;;29.67;20.90;;;7.60;99.90;;;7.78;84.00;100815.88;5115412;28;20088;-69
2021/12/11 04:14:32;;;;;;;30.88;20.17;;;7.60;99.90;;;7.77;84.03;100814.13;5115821;28;20042;-69
2021/12/11 04:17:03;;;;;;;32.10;20.75;;;7.50;99.90;;;7.71;84.01;100824.63;5096643;28;20458;-70
2021/12/11 04:19:32;;;;;;;30.83;20.83;;;7.50;99.90;;;7.71;83.94;100823.75;5115429;28;20050;-69
2021/12/11 04:22:01;;;;;;;28.20;20.63;;;7.50;99.90;;;7.68;83.74;100823.72;5115178;28;20070;-69
2021/12/11 04:24:35;;;;;;;26.48;18.70;;;7.40;99.90;;;7.67;84.18;100827.22;5115104;28;20047;-69
2021/12/11 04:27:07;;;;;;;30.77;19.02;;;7.50;99.90;;;7.73;83.89;100840.41;5115110;28;20055;-69
2021/12/11 04:29:35;;;;;;;29.73;18.88;;;7.50;99.90;;;7.46;83.44;100800.75;5115004;28;20051;-69
2021/12/11 04:32:06;;;;;;;30.48;14.95;;;7.50;99.90;;;7.42;83.72;100841.06;5114909;28;20548;-69
2021/12/11 04:34:36;;;;;;;30.88;9.00;;;7.30;99.90;;;7.25;86.21;100820.78;5115486;28;20040;-69
2021/12/11 04:37:13;;;;;;;24.70;6.75;;;7.30;99.90;;;7.47;87.43;100836.75;5114862;28;20035;-69
2021/12/11 04:39:48;;;;;;;26.40;5.35;;;7.30;99.90;;;7.61;87.78;100845.59;5114750;28;20558;-69
2021/12/11 04:42:29;;;;;;;16.42;5.07;;;7.40;99.90;;;7.48;86.75;100814.81;5114779;28;20036;-69
2021/12/11 04:44:58;;;;;;;17.73;6.35;;;7.50;99.90;;;7.68;85.83;100843.03;5114736;28;20046;-70
2021/12/11 04:47:35;;;;;;;13.75;5.43;;;7.50;99.90;;;7.68;84.41;100844.78;5114912;28;20044;-69
2021/12/11 04:50:16;;;;;;;16.80;5.65;;;7.60;99.90;;;7.63;84.15;100852.63;5114632;28;20105;-70
2021/12/11 04:52:54;;;;;;;16.25;5.38;;;7.60;99.90;;;7.64;84.08;100848.28;5114590;28;20108;-69
2021/12/11 04:55:47;;;;;;;22.20;6.20;;;7.50;99.90;;;7.72;84.03;100851.84;5114796;28;20036;-69
2021/12/11 04:58:40;;;;;;;13.57;5.22;;;7.60;99.90;;;7.85;84.11;100858.94;5114434;28;20058;-70
2021/12/11 05:01:28;;;;;;;23.17;6.32;;;7.60;99.90;;;6.93;84.02;100718.84;5114663;28;20126;-70
2021/12/11 05:04:29;;;;;;;26.27;6.28;;;7.60;99.90;;;7.78;84.60;100870.31;5114590;28;20055;-69
2021/12/11 05:07:04;;;;;;;19.30;5.53;;;7.70;99.90;;;7.77;85.33;100873.81;5114851;28;20093;-69
2021/12/11 05:09:40;;;;;;;19.17;5.50;;;7.60;99.90;;;7.96;85.23;100878.31;5114516;28;20051;-69
2021/12/11 05:12:19;;;;;;;12.75;5.20;;;7.80;99.90;;;7.92;85.71;100874.78;5114161;28;20097;-69
2021/12/11 05:14:48;;;;;;;16.97;5.93;;;7.80;99.90;;;7.96;85.38;100876.56;5096239;28;20168;-69
2021/12/11 05:17:17;;;;;;;23.02;6.45;;;7.80;99.90;;;8.02;85.97;100889.78;5113974;28;20533;-69
2021/12/11 05:19:47;;;;;;;24.85;5.63;;;7.90;99.90;;;8.09;85.81;100894.19;5114432;28;20439;-69
2021/12/11 05:22:18;;;;;;;16.77;5.95;;;7.90;99.90;;;8.19;85.66;100889.84;5114334;28;20044;-69
2021/12/11 05:24:49;;;;;;;;;;;8.00;99.90;;;8.24;84.64;100893.41;5114375;28;20103;-69
2021/12/11 05:27:19;;;;;;;20.42;5.25;;;8.10;99.90;;;8.23;84.74;100895.16;5095264;28;19972;-70
2021/12/11 05:29:48;;;;;;;16.95;6.45;;;8.10;99.90;;;8.26;84.35;100896.97;5113716;28;20075;-70
2021/12/11 05:32:21;;;;;;;24.73;6.05;;;8.20;99.90;;;8.33;83.70;100906.66;5113738;28;20457;-69
2021/12/11 05:34:49;;;;;;;16.75;5.60;;;8.20;99.90;;;8.44;82.70;100909.38;5113740;28;20482;-70
2021/12/11 05:37:18;;;;;;;20.48;5.47;;;8.30;99.90;;;8.50;82.40;100909.38;5113686;28;20104;-70
2021/12/11 05:39:47;;;;;;;20.20;5.43;;;8.40;99.90;;;8.49;81.12;100912.88;5113828;28;20040;-69
2021/12/11 05:42:17;;;;;;;18.55;5.75;;;8.40;99.90;;;8.72;80.69;100913.88;5113671;28;20461;-70
2021/12/11 05:44:46;;;;;;;13.80;5.22;;;8.50;99.90;;;8.71;80.31;100918.25;5114110;28;20101;-70
2021/12/11 05:47:16;;;;;;;23.20;5.72;;;8.60;99.90;;;8.72;79.66;100917.38;5095633;28;20134;-69
2021/12/11 05:49:46;;;;;;;17.67;5.75;;;8.60;99.90;;;8.71;79.33;100923.53;5113453;28;20056;-70
2021/12/11 05:52:15;;;;;;;17.67;5.40;;;8.60;99.90;;;8.76;78.50;100918.28;5113473;28;20071;-70
2021/12/11 05:54:46;;;;;;;18.80;5.20;;;8.70;99.90;;;8.67;78.49;100905.06;5113688;28;20082;-69
2021/12/11 05:57:20;;;;;;;30.10;5.53;;;8.70;99.90;;;8.73;78.36;100931.47;5113442;28;20040;-70
2021/12/11 05:59:51;;;;;;;27.38;5.75;;;8.60;99.90;;;8.88;78.54;100956.09;5113612;28;20564;-69
2021/12/11 06:02:23;;;;;;;20.65;5.60;;;8.70;99.90;;;8.78;78.59;100940.25;5113631;28;20454;-69
2021/12/11 06:04:58;;;;;;;19.15;6.20;;;8.70;99.90;;;8.79;79.02;100945.53;5113349;28;20051;-70
2021/12/11 06:07:30;;;;;;;25.15;5.65;;;8.70;99.90;;;8.87;78.55;100958.75;5113365;28;20127;-70
2021/12/11 06:10:05;;;;;;;19.55;6.20;;;8.70;99.90;;;8.83;78.14;100957.88;5113332;28;20036;-70
2021/12/11 06:12:35;;;;;;;19.55;6.00;;;8.80;99.90;;;8.84;77.55;100953.47;5113286;28;20047;-69
2021/12/11 06:15:06;;;;;;;31.23;5.82;;;8.80;99.90;;;8.82;77.72;100971.06;5113289;28;20097;-69
2021/12/11 06:17:36;;;;;;;21.17;5.80;;;8.80;99.90;;;8.94;78.33;100984.28;5113255;28;20036;-69
2021/12/11 06:20:15;;;;;;;31.25;6.47;;;8.80;99.90;;;8.94;78.61;100986.94;5095145;28;20473;-69
2021/12/11 06:22:44;;;;;;;24.92;6.43;;;8.80;99.90;;;8.97;79.00;100998.38;5113712;28;20096;-69
2021/12/11 06:25:17;;;;;;;21.65;5.47;;;8.80;99.90;;;8.91;79.39;100997.44;5113058;28;20036;-70
2021/12/11 06:27:48;;;;;;;20.75;5.97;;;8.90;99.90;;;9.09;79.19;101014.25;5113166;28;20500;-69
2021/12/11 06:30:18;;;;;;;18.20;5.80;;;8.90;99.90;;;9.22;79.49;101017.81;5095455;28;20382;-69
2021/12/11 06:32:48;;;;;;;20.00;5.45;;;9.10;99.90;;;9.44;79.94;101032.84;5113026;28;20082;-69
2021/12/11 06:35:26;;;;;;;25.85;6.47;;;9.30;99.90;;;9.45;80.32;101029.31;5113088;28;20126;-70
2021/12/11 06:37:54;;;;;;;21.45;5.30;;;9.40;99.90;;;9.40;81.06;101049.56;5113009;28;20054;-70
2021/12/11 06:40:24;;;;;;;15.43;5.35;;;9.40;99.90;;;9.32;81.64;101046.00;5116074;28;20090;-70
2021/12/11 06:42:55;;;;;;;20.13;5.77;;;9.30;99.90;;;9.36;82.27;101060.97;5117871;28;20062;-69
2021/12/11 06:45:27;;;;;;;14.73;4.85;;;9.30;99.90;;;9.46;81.66;101057.50;5117309;28;20338;-69
2021/12/11 06:47:55;;;;;;;12.50;4.55;;;9.40;99.90;;;9.32;81.08;101059.19;5116880;28;20063;-69
2021/12/11 06:50:24;;;;;;;12.57;5.18;;;9.40;99.90;;;9.45;80.91;101063.63;5116987;28;20039;-69
2021/12/11 06:52:55;;;;;;;12.55;4.85;;;9.40;99.90;;;9.57;80.30;101068.97;5116891;28;20051;-69
2021/12/11 06:55:24;;;;;;;14.32;5.28;;;9.50;99.90;;;9.19;80.38;101065.31;5095353;28;20052;-69
2021/12/11 06:57:54;;;;;;;14.63;4.50;;;9.30;99.90;;;9.29;80.28;101077.63;5096446;28;20059;-69
2021/12/11 07:00:28;;;;;;;9.07;3.85;;;9.30;99.90;;;9.28;80.27;101081.16;5096436;28;20044;-69
2021/12/11 07:02:58;;;;;;;10.85;4.70;;;9.30;99.90;;;9.01;81.60;101089.84;5095257;28;20051;-69
2021/12/11 07:05:26;;;;;;;7.88;3.72;;;9.00;99.90;;;9.26;81.51;101085.56;5096300;28;20130;-70
2021/12/11 07:07:55;;;;;;;8.05;4.10;;;9.20;99.90;;;9.00;81.49;101097.75;5096165;28;20036;-69
2021/12/11 07:10:23;;;;;;;12.15;4.50;;;9.10;99.90;;;8.91;83.01;101103.84;5095125;28;20122;-69
2021/12/11 07:12:53;;;;;;;11.35;4.65;;;8.80;99.90;;;8.91;82.87;101108.25;5096107;28;20043;-69
2021/12/11 07:15:22;;;;;;;14.23;4.78;;;8.80;99.90;;;8.88;83.48;101108.22;5096307;28;20582;-69
2021/12/11 07:17:50;;;;;;;11.70;4.57;;;8.80;99.90;;;9.08;83.25;101122.41;5095911;28;20122;-69
2021/12/11 07:20:19;;;;;;;24.58;5.50;;;8.90;99.90;;;9.24;83.13;101113.69;5096209;28;20044;-69
2021/12/11 07:22:47;;;;;;;19.55;5.28;;;9.10;99.90;;;9.31;83.20;101125.19;5095928;28;20043;-69
2021/12/11 07:25:21;;;;;;;15.27;5.30;;;9.20;99.90;;;9.24;83.47;101133.94;5095861;28;20090;-69
2021/12/11 07:27:50;;;;;;;18.17;5.05;;;9.10;99.90;;;9.24;84.03;101140.09;5096196;28;20070;-69
2021/12/11 07:30:21;;;;;;;22.38;6.13;;;9.20;99.90;;;9.15;84.90;101147.97;5095826;28;20032;-70
2021/12/11 07:32:51;;;;;;;17.40;5.60;;;9.00;99.90;;;9.27;83.80;101150.66;5094791;28;20041;-69
2021/12/11 07:35:20;;;;;;;;;;;9.20;99.90;;;9.25;83.70;101154.19;5096505;28;20048;-70
2021/12/11 07:37:50;;;;;;;12.32;4.57;;;9.30;99.90;;;9.36;82.93;101160.38;5095574;28;20018;-69
2021/12/11 07:40:22;;;;;;;17.20;5.28;;;9.30;99.90;;;9.48;82.82;101166.63;5095589;28;20486;-69
2021/12/11 07:42:52;;;;;;;8.57;4.35;;;9.40;99.90;;;9.51;82.43;101177.19;5095547;28;20036;-70
2021/12/11 07:45:23;;;;;;;15.10;4.90;;;9.50;99.90;;;9.52;82.13;101184.25;5095970;28;20105;-70
2021/12/11 07:47:51;;;;;;;15.13;5.32;;;9.40;99.90;;;9.32;82.12;101175.34;5094419;28;20428;-69
2021/12/11 07:50:21;;;;;;;13.23;4.85;;;9.40;99.90;;;9.55;82.07;101191.28;5094645;28;20089;-69
2021/12/11 07:52:50;;;;;;;19.02;5.82;;;9.40;99.90;;;9.64;81.51;101200.13;5095570;28;20047;-70
2021/12/11 07:55:19;;;;;;;10.52;5.13;;;9.50;99.90;;;9.77;80.83;101201.09;5113173;28;20054;-70
2021/12/11 07:57:48;;;;;;;16.40;5.65;;;9.60;99.90;;;9.75;80.24;101209.00;5116042;28;20059;-69
2021/12/11 08:00:24;;;;;;;7.90;4.85;;;9.70;99.90;;;9.64;80.29;101194.84;5115520;28;20114;-70
2021/12/11 08:02:54;;;;;;;13.25;4.63;;;9.70;99.90;;;9.83;80.48;101216.97;5115560;28;20035;-69
2021/12/11 08:05:24;;;;;;;13.80;4.78;;;9.70;99.90;;;9.93;80.25;101234.59;5115539;28;20043;-69
2021/12/11 08:07:52;;;;;;;11.93;5.43;;;9.80;99.90;;;9.97;80.11;101231.09;5115369;28;20073;-70
2021/12/11 08:10:24;;;;;;;15.57;4.93;;;9.90;99.90;;;9.94;79.83;101237.25;5115735;28;20032;-69
2021/12/11 08:12:53;;;;;;;14.00;5.43;;;9.80;99.90;;;9.99;79.94;101243.44;5115413;28;20047;-70
2021/12/11 08:15:22;;;;;;;13.77;5.72;;;9.80;99.90;;;10.01;79.52;101239.03;5115198;28;20462;-69
2021/12/11 08:17:54;;;;;;;12.88;5.00;;;9.80;99.90;;;10.04;79.43;101261.97;5115498;28;20042;-69
2021/12/11 08:20:27;;;;;;;12.05;4.88;;;9.80;99.90;;;10.04;79.64;101257.53;5115366;28;20109;-69
2021/12/11 08:22:57;;;;;;;11.55;5.35;;;9.90;99.90;;;10.10;79.49;101272.59;5097122;28;20143;-69
2021/12/11 08:25:29;;;;;;;11.07;5.55;;;9.90;99.90;;;10.12;79.54;101270.84;5097043;28;20101;-69
2021/12/11 08:28:00;;;;;;;9.20;4.90;;;9.90;99.90;;;10.21;79.43;101272.63;5114876;28;20092;-69
2021/12/11 08:30:32;;;;;;;11.07;5.40;;;10.00;99.90;;;10.25;79.39;101282.34;5114918;28;20484;-68
2021/12/11 08:33:02;;;;;;;15.20;6.13;;;10.00;99.90;;;10.28;79.96;101288.50;5114905;28;20101;-69
2021/12/11 08:35:31;;;;;;;15.32;6.47;;;10.10;99.90;;;10.24;79.76;101267.38;5114948;28;20063;-72
2021/12/11 08:38:01;;;;;;;14.85;6.55;;;10.20;99.90;;;10.38;79.76;101286.78;5114913;28;20039;-72
2021/12/11 08:40:34;;;;;;;16.55;7.22;;;10.30;99.90;;;10.48;79.67;101304.44;5114568;28;20048;-71
2021/12/11 08:43:05;;;;;;;16.95;8.77;;;10.30;99.90;;;10.57;80.19;101294.75;5114670;28;20046;-71
2021/12/11 08:45:45;;;;;;;22.50;8.68;;;10.40;99.90;;;10.75;81.12;101307.16;5115280;28;20077;-70
2021/12/11 08:48:19;;;;;;;19.70;8.88;;;10.60;99.90;;;10.86;80.71;101313.34;5096406;28;20051;-70
2021/12/11 08:50:51;;;;;;;18.52;9.60;;;10.60;99.90;;;10.87;79.54;101310.72;5114619;28;20075;-70
2021/12/11 08:53:20;;;;;;;18.20;8.90;;;10.70;99.90;;;10.79;78.77;101320.41;5114359;28;20472;-71
2021/12/11 08:55:54;;;;;;;16.08;8.88;;;10.60;99.90;;;10.72;78.66;101325.69;5114865;28;20468;-70
2021/12/11 08:58:26;;;;;;;17.08;8.50;;;10.50;99.90;;;10.66;79.06;101338.88;5114591;28;20044;-70
2021/12/11 09:00:59;;;;;;;17.98;9.32;;;10.40;99.90;;;10.62;79.17;101337.09;5114382;28;20031;-70
2021/12/11 09:03:33;;;;;;;23.55;9.77;;;10.40;99.90;;;10.57;79.05;101342.38;5114236;28;20039;-70
2021/12/11 09:06:08;;;;;;;15.93;8.05;;;10.30;99.90;;;10.61;79.40;101344.16;5114240;28;20044;-72
2021/12/11 09:08:41;;;;;;;20.27;9.40;;;10.30;99.90;;;10.58;79.37;101346.81;5114596;28;20088;-75
2021/12/11 09:11:15;;;;;;;18.45;9.30;;;10.40;99.90;;;10.54;79.77;101341.50;5114766;28;20039;-69
2021/12/11 09:13:49;;;;;;;20.15;10.13;;;10.40;99.90;;;10.64;79.87;101352.13;5114271;28;20093;-69
2021/12/11 09:16:22;;;;;;;17.35;9.02;;;10.40;99.90;;;10.58;79.89;101325.66;5114124;28;20040;-70
2021/12/11 09:18:58;;;;;;;24.90;9.73;;;10.50;99.90;;;10.97;81.41;101337.19;5114102;28;20040;-71
2021/12/11 09:21:32;;;;;;;16.70;9.57;;;10.80;99.90;;;11.63;81.43;101363.69;5114054;28;20043;-70
2021/12/11 09:24:09;;;;;;;19.45;10.27;;;11.40;99.90;;;12.11;79.60;101370.69;5114624;28;20104;-69
2021/12/11 09:26:45;;;;;;;20.40;9.70;;;11.90;99.90;;;12.54;78.14;101374.97;5114235;28;20083;-69
2021/12/11 09:29:18;;;;;;;19.10;9.57;;;12.40;99.90;;;13.20;76.28;101395.88;5113949;28;20048;-69
2021/12/11 09:32:01;;;;;;;18.77;10.23;;;13.00;99.90;;;13.62;73.64;101377.84;5113865;28;20119;-68
2021/12/11 09:34:36;;;;;;;16.65;9.82;;;13.50;99.90;;;14.18;71.90;101392.34;5114028;28;20559;-72
2021/12/11 09:37:08;;;;;;;18.08;10.52;;;14.10;99.90;;;14.55;69.80;101395.50;5113925;28;20051;-71
2021/12/11 09:39:42;;;;;;;21.42;9.93;;;14.50;99.90;;;15.00;68.44;101405.53;5113895;28;20097;-72
2021/12/11 09:42:10;;;;;;;17.02;9.15;;;14.80;99.90;;;15.36;66.92;101420.13;5113594;28;20447;-69
2021/12/11 09:44:46;;;;;;;16.60;8.63;;;15.20;99.90;;;15.62;65.73;101403.78;5113484;28;20096;-72
2021/12/11 09:47:22;;;;;;;17.95;8.88;;;15.50;99.90;;;15.76;64.49;101393.72;5113611;28;20052;-70
2021/12/11 09:49:58;;;;;;;17.85;9.90;;;15.80;99.90;;;16.15;64.09;101412.59;5095576;28;20147;-75
2021/12/11 09:52:30;;;;;;;15.02;9.07;;;16.10;99.90;;;16.45;63.54;101427.16;5113876;28;20046;-79
2021/12/11 09:55:04;;;;;;;16.65;8.73;;;16.40;99.90;;;16.39;62.44;101413.03;5113338;28;20052;-70
2021/12/11 09:57:38;;;;;;;16.50;8.57;;;16.50;99.90;;;16.30;61.32;101435.44;5113453;28;20096;-74
2021/12/11 10:00:13;;;;;;;18.15;8.85;;;16.30;99.90;;;16.07;61.32;101440.31;5113914;28;20092;-73
2021/12/11 10:02:42;;;;;;;13.55;8.13;;;16.00;99.90;;;15.64;61.40;101412.63;5113333;28;20062;-71
2021/12/11 10:05:29;;;;;;;17.23;8.77;;;15.70;99.90;;;15.44;61.80;101444.94;5095333;28;20456;-79
2021/12/11 10:08:24;;;;;;;12.55;7.47;;;15.40;99.90;;;15.09;62.65;101442.75;5113306;28;20039;-81
2021/12/11 10:10:53;;;;;;;16.15;7.88;;;15.00;99.90;;;14.82;63.31;101451.09;5095091;28;20063;-76
2021/12/11 10:13:22;;;;;;;15.63;8.35;;;14.70;99.90;;;14.59;63.95;101452.25;5114848;28;20054;-74
2021/12/11 10:15:52;;;;;;;18.63;8.73;;;14.40;99.90;;;14.35;64.42;101456.06;5113003;28;20408;-73
2021/12/11 10:18:25;;;;;;;13.68;8.07;;;14.20;99.90;;;14.01;65.31;101436.00;5113543;28;20050;-78
2021/12/11 10:21:00;;;;;;;16.13;8.65;;;14.00;99.90;;;13.92;65.92;101463.53;5113562;28;20042;-79
2021/12/11 10:23:34;;;;;;;18.40;9.15;;;13.80;99.90;;;13.58;66.59;101457.63;5113167;28;20044;-76
2021/12/11 10:26:09;;;;;;;18.08;8.68;;;13.50;99.90;;;13.42;67.64;101465.69;5113435;28;20063;-78
2021/12/11 10:28:42;;;;;;;15.93;8.25;;;13.30;99.90;;;12.59;68.63;101395.28;5113284;28;20043;-83
2021/12/11 10:31:16;;;;;;;27.35;7.97;;;13.00;99.90;;;12.44;70.05;101456.38;5113390;28;20138;-82
2021/12/11 10:33:45;;;;;;;21.80;6.85;;;12.50;99.90;;;12.18;71.77;101462.59;5113128;28;20493;-79
2021/12/11 10:36:25;;;;;;;22.77;7.13;;;12.10;99.90;;;11.33;74.41;101465.22;5112943;28;20036;-84
2021/12/11 10:38:57;;;;;;;23.27;6.95;;;11.30;99.90;;;11.13;76.01;101458.97;5113292;28;20134;-76